sensor_id;sensor_type;location;lat;lon;timestamp;P1;durP1;ratioP1;P2;durP2;ratioP2
32038;SDS011;18549;42.286;22.688;2022-12-18T00:00:01;69.93;;;43.40;;
32038;SDS011;18549;42.286;22.688;2022-12-18T00:02:29;69.67;;;41.47;;
32038;SDS011;18549;42.286;22.688;2022-12-18T00:04:57;66.13;;;39.13;;
32038;SDS011;18549;42.286;22.688;2022-12-18T00:07:24;73.73;;;46.00;;
32038;SDS011;18549;42.286;22.688;2022-12-18T00:09:51;99.37;;;60.40;;
32038;SDS011;18549;42.286;22.688;2022-12-18T00:12:19;111.20;;;69.70;;
32038;SDS011;18549;42.286;22.688;2022-12-18T00:14:46;82.77;;;58.30;;
32038;SDS011;18549;42.286;22.688;2022-12-18T00:17:15;62.83;;;37.93;;
32038;SDS011;18549;42.286;22.688;2022-12-18T00:19:42;52.07;;;31.23;;
32038;SDS011;18549;42.286;22.688;2022-12-18T00:22:10;43.57;;;27.87;;
32038;SDS011;18549;42.286;22.688;2022-12-18T00:24:37;54.57;;;33.03;;
32038;SDS011;18549;42.286;22.688;2022-12-18T00:27:04;115.30;;;76.70;;
32038;SDS011;18549;42.286;22.688;2022-12-18T00:29:32;106.33;;;74.33;;
32038;SDS011;18549;42.286;22.688;2022-12-18T00:31:59;81.90;;;56.10;;
32038;SDS011;18549;42.286;22.688;2022-12-18T00:34:28;69.50;;;44.33;;
32038;SDS011;18549;42.286;22.688;2022-12-18T00:36:56;64.27;;;41.40;;
32038;SDS011;18549;42.286;22.688;2022-12-18T00:39:23;50.80;;;34.77;;
32038;SDS011;18549;42.286;22.688;2022-12-18T00:41:50;48.90;;;34.73;;
32038;SDS011;18549;42.286;22.688;2022-12-18T00:44:35;49.20;;;34.40;;
32038;SDS011;18549;42.286;22.688;2022-12-18T00:47:02;52.80;;;32.43;;
32038;SDS011;18549;42.286;22.688;2022-12-18T00:49:31;55.93;;;34.70;;
32038;SDS011;18549;42.286;22.688;2022-12-18T00:51:59;50.27;;;34.07;;
32038;SDS011;18549;42.286;22.688;2022-12-18T00:54:26;66.57;;;43.33;;
32038;SDS011;18549;42.286;22.688;2022-12-18T00:56:54;62.63;;;44.73;;
32038;SDS011;18549;42.286;22.688;2022-12-18T00:59:21;85.47;;;53.37;;
32038;SDS011;18549;42.286;22.688;2022-12-18T01:01:49;89.77;;;63.20;;
32038;SDS011;18549;42.286;22.688;2022-12-18T01:04:16;84.40;;;61.70;;
32038;SDS011;18549;42.286;22.688;2022-12-18T01:06:45;82.77;;;61.57;;
32038;SDS011;18549;42.286;22.688;2022-12-18T01:09:12;90.77;;;65.37;;
32038;SDS011;18549;42.286;22.688;2022-12-18T01:11:39;103.70;;;72.17;;
32038;SDS011;18549;42.286;22.688;2022-12-18T01:14:07;121.73;;;71.30;;
32038;SDS011;18549;42.286;22.688;2022-12-18T01:16:35;132.23;;;74.07;;
32038;SDS011;18549;42.286;22.688;2022-12-18T01:19:02;104.10;;;62.77;;
32038;SDS011;18549;42.286;22.688;2022-12-18T01:21:30;96.87;;;60.33;;
32038;SDS011;18549;42.286;22.688;2022-12-18T01:23:58;89.87;;;52.70;;
32038;SDS011;18549;42.286;22.688;2022-12-18T01:26:26;66.43;;;39.67;;
32038;SDS011;18549;42.286;22.688;2022-12-18T01:28:54;62.00;;;39.50;;
32038;SDS011;18549;42.286;22.688;2022-12-18T01:31:23;59.93;;;38.10;;
32038;SDS011;18549;42.286;22.688;2022-12-18T01:33:51;53.20;;;35.27;;
32038;SDS011;18549;42.286;22.688;2022-12-18T01:36:20;50.93;;;35.30;;
32038;SDS011;18549;42.286;22.688;2022-12-18T01:38:49;44.53;;;28.90;;
32038;SDS011;18549;42.286;22.688;2022-12-18T01:41:19;43.27;;;28.27;;
32038;SDS011;18549;42.286;22.688;2022-12-18T01:43:49;43.93;;;28.40;;
32038;SDS011;18549;42.286;22.688;2022-12-18T01:46:19;56.37;;;33.37;;
32038;SDS011;18549;42.286;22.688;2022-12-18T01:48:49;60.33;;;35.50;;
32038;SDS011;18549;42.286;22.688;2022-12-18T01:51:20;43.90;;;30.57;;
32038;SDS011;18549;42.286;22.688;2022-12-18T01:53:48;52.37;;;32.77;;
32038;SDS011;18549;42.286;22.688;2022-12-18T01:56:16;80.07;;;53.00;;
32038;SDS011;18549;42.286;22.688;2022-12-18T01:58:50;65.53;;;45.40;;
32038;SDS011;18549;42.286;22.688;2022-12-18T02:01:21;61.77;;;41.47;;
32038;SDS011;18549;42.286;22.688;2022-12-18T02:03:50;65.07;;;40.47;;
32038;SDS011;18549;42.286;22.688;2022-12-18T02:06:19;55.37;;;35.53;;
32038;SDS011;18549;42.286;22.688;2022-12-18T02:08:54;45.67;;;29.90;;
32038;SDS011;18549;42.286;22.688;2022-12-18T02:11:35;39.97;;;28.07;;
32038;SDS011;18549;42.286;22.688;2022-12-18T02:14:12;37.40;;;22.87;;
32038;SDS011;18549;42.286;22.688;2022-12-18T02:16:46;33.30;;;19.07;;
32038;SDS011;18549;42.286;22.688;2022-12-18T02:19:36;39.70;;;23.50;;
32038;SDS011;18549;42.286;22.688;2022-12-18T02:22:24;52.57;;;29.63;;
32038;SDS011;18549;42.286;22.688;2022-12-18T02:25:00;60.07;;;29.47;;
32038;SDS011;18549;42.286;22.688;2022-12-18T02:27:39;47.50;;;27.73;;
32038;SDS011;18549;42.286;22.688;2022-12-18T02:30:08;44.30;;;26.13;;
32038;SDS011;18549;42.286;22.688;2022-12-18T02:32:36;43.00;;;24.40;;
32038;SDS011;18549;42.286;22.688;2022-12-18T02:35:08;41.27;;;24.57;;
32038;SDS011;18549;42.286;22.688;2022-12-18T02:37:42;47.03;;;25.97;;
32038;SDS011;18549;42.286;22.688;2022-12-18T02:40:12;28.27;;;17.37;;
32038;SDS011;18549;42.286;22.688;2022-12-18T02:42:44;38.37;;;21.67;;
32038;SDS011;18549;42.286;22.688;2022-12-18T02:45:12;32.47;;;21.20;;
32038;SDS011;18549;42.286;22.688;2022-12-18T02:47:40;31.63;;;21.03;;
32038;SDS011;18549;42.286;22.688;2022-12-18T02:50:13;30.80;;;18.87;;
32038;SDS011;18549;42.286;22.688;2022-12-18T02:52:51;23.10;;;16.80;;
32038;SDS011;18549;42.286;22.688;2022-12-18T02:55:29;26.87;;;16.90;;
32038;SDS011;18549;42.286;22.688;2022-12-18T02:58:10;25.80;;;19.20;;
32038;SDS011;18549;42.286;22.688;2022-12-18T03:00:45;18.53;;;15.63;;
32038;SDS011;18549;42.286;22.688;2022-12-18T03:03:18;23.30;;;17.63;;
32038;SDS011;18549;42.286;22.688;2022-12-18T03:05:52;24.13;;;16.77;;
32038;SDS011;18549;42.286;22.688;2022-12-18T03:08:25;18.73;;;15.20;;
32038;SDS011;18549;42.286;22.688;2022-12-18T03:10:55;20.00;;;16.33;;
32038;SDS011;18549;42.286;22.688;2022-12-18T03:13:33;7.97;;;6.83;;
32038;SDS011;18549;42.286;22.688;2022-12-18T03:16:03;10.93;;;7.60;;
32038;SDS011;18549;42.286;22.688;2022-12-18T03:18:35;9.20;;;7.97;;
32038;SDS011;18549;42.286;22.688;2022-12-18T03:21:06;10.20;;;7.30;;
32038;SDS011;18549;42.286;22.688;2022-12-18T03:23:35;11.97;;;6.60;;
32038;SDS011;18549;42.286;22.688;2022-12-18T03:26:07;13.20;;;7.03;;
32038;SDS011;18549;42.286;22.688;2022-12-18T03:28:39;9.17;;;7.20;;
32038;SDS011;18549;42.286;22.688;2022-12-18T03:31:10;11.20;;;6.60;;
32038;SDS011;18549;42.286;22.688;2022-12-18T03:33:41;9.50;;;7.17;;
32038;SDS011;18549;42.286;22.688;2022-12-18T03:36:13;15.03;;;7.73;;
32038;SDS011;18549;42.286;22.688;2022-12-18T03:38:41;11.30;;;7.93;;
32038;SDS011;18549;42.286;22.688;2022-12-18T03:41:10;19.27;;;8.20;;
32038;SDS011;18549;42.286;22.688;2022-12-18T03:43:48;19.67;;;10.23;;
32038;SDS011;18549;42.286;22.688;2022-12-18T03:46:22;16.33;;;9.60;;
32038;SDS011;18549;42.286;22.688;2022-12-18T03:48:56;16.37;;;8.27;;
32038;SDS011;18549;42.286;22.688;2022-12-18T03:51:31;28.17;;;9.63;;
32038;SDS011;18549;42.286;22.688;2022-12-18T03:54:03;25.67;;;10.07;;
32038;SDS011;18549;42.286;22.688;2022-12-18T03:56:34;18.13;;;9.43;;
32038;SDS011;18549;42.286;22.688;2022-12-18T03:59:06;20.87;;;10.10;;
32038;SDS011;18549;42.286;22.688;2022-12-18T04:01:38;22.53;;;11.80;;
32038;SDS011;18549;42.286;22.688;2022-12-18T04:04:08;20.43;;;11.60;;
32038;SDS011;18549;42.286;22.688;2022-12-18T04:06:38;22.67;;;12.13;;
32038;SDS011;18549;42.286;22.688;2022-12-18T04:09:07;21.37;;;12.10;;
32038;SDS011;18549;42.286;22.688;2022-12-18T04:11:34;15.33;;;9.10;;
32038;SDS011;18549;42.286;22.688;2022-12-18T04:14:02;16.47;;;8.87;;
32038;SDS011;18549;42.286;22.688;2022-12-18T04:16:30;15.33;;;9.53;;
32038;SDS011;18549;42.286;22.688;2022-12-18T04:18:58;17.03;;;11.10;;
32038;SDS011;18549;42.286;22.688;2022-12-18T04:21:25;15.07;;;11.70;;
32038;SDS011;18549;42.286;22.688;2022-12-18T04:23:53;17.60;;;11.73;;
32038;SDS011;18549;42.286;22.688;2022-12-18T04:26:20;17.73;;;11.23;;
32038;SDS011;18549;42.286;22.688;2022-12-18T04:28:48;15.23;;;10.63;;
32038;SDS011;18549;42.286;22.688;2022-12-18T04:31:15;12.70;;;7.77;;
32038;SDS011;18549;42.286;22.688;2022-12-18T04:33:44;9.10;;;6.30;;
32038;SDS011;18549;42.286;22.688;2022-12-18T04:36:11;14.23;;;8.43;;
32038;SDS011;18549;42.286;22.688;2022-12-18T04:38:39;15.60;;;9.80;;
32038;SDS011;18549;42.286;22.688;2022-12-18T04:41:06;13.20;;;7.73;;
32038;SDS011;18549;42.286;22.688;2022-12-18T04:43:33;15.47;;;10.20;;
32038;SDS011;18549;42.286;22.688;2022-12-18T04:46:01;14.20;;;10.17;;
32038;SDS011;18549;42.286;22.688;2022-12-18T04:48:29;12.23;;;8.43;;
32038;SDS011;18549;42.286;22.688;2022-12-18T04:50:58;14.47;;;8.90;;
32038;SDS011;18549;42.286;22.688;2022-12-18T04:53:26;11.37;;;7.80;;
32038;SDS011;18549;42.286;22.688;2022-12-18T04:56:01;7.27;;;5.97;;
32038;SDS011;18549;42.286;22.688;2022-12-18T04:58:30;7.20;;;5.90;;
32038;SDS011;18549;42.286;22.688;2022-12-18T05:00:57;9.87;;;7.67;;
32038;SDS011;18549;42.286;22.688;2022-12-18T05:03:24;12.40;;;7.77;;
32038;SDS011;18549;42.286;22.688;2022-12-18T05:05:52;8.87;;;6.93;;
32038;SDS011;18549;42.286;22.688;2022-12-18T05:08:20;12.43;;;8.10;;
32038;SDS011;18549;42.286;22.688;2022-12-18T05:10:48;17.10;;;9.33;;
32038;SDS011;18549;42.286;22.688;2022-12-18T05:13:15;16.73;;;11.30;;
32038;SDS011;18549;42.286;22.688;2022-12-18T05:15:43;9.97;;;7.50;;
32038;SDS011;18549;42.286;22.688;2022-12-18T05:18:18;11.37;;;7.77;;
32038;SDS011;18549;42.286;22.688;2022-12-18T05:20:45;10.00;;;7.83;;
32038;SDS011;18549;42.286;22.688;2022-12-18T05:23:13;12.23;;;7.00;;
32038;SDS011;18549;42.286;22.688;2022-12-18T05:25:41;10.77;;;8.00;;
32038;SDS011;18549;42.286;22.688;2022-12-18T05:28:09;12.40;;;7.80;;
32038;SDS011;18549;42.286;22.688;2022-12-18T05:30:36;12.77;;;7.27;;
32038;SDS011;18549;42.286;22.688;2022-12-18T05:33:04;10.63;;;7.03;;
32038;SDS011;18549;42.286;22.688;2022-12-18T05:35:31;10.97;;;6.47;;
32038;SDS011;18549;42.286;22.688;2022-12-18T05:37:58;14.50;;;7.20;;
32038;SDS011;18549;42.286;22.688;2022-12-18T05:40:26;17.90;;;7.63;;
32038;SDS011;18549;42.286;22.688;2022-12-18T05:42:55;9.03;;;6.20;;
32038;SDS011;18549;42.286;22.688;2022-12-18T05:45:22;9.83;;;5.47;;
32038;SDS011;18549;42.286;22.688;2022-12-18T05:47:49;8.13;;;6.17;;
32038;SDS011;18549;42.286;22.688;2022-12-18T05:50:17;8.40;;;5.70;;
32038;SDS011;18549;42.286;22.688;2022-12-18T05:52:44;6.23;;;5.50;;
32038;SDS011;18549;42.286;22.688;2022-12-18T05:55:11;8.87;;;4.70;;
32038;SDS011;18549;42.286;22.688;2022-12-18T05:57:39;7.20;;;4.43;;
32038;SDS011;18549;42.286;22.688;2022-12-18T06:00:08;5.60;;;4.07;;
32038;SDS011;18549;42.286;22.688;2022-12-18T06:02:37;5.70;;;4.47;;
32038;SDS011;18549;42.286;22.688;2022-12-18T06:05:04;6.80;;;6.07;;
32038;SDS011;18549;42.286;22.688;2022-12-18T06:07:33;14.83;;;12.23;;
32038;SDS011;18549;42.286;22.688;2022-12-18T06:10:01;8.77;;;6.93;;
32038;SDS011;18549;42.286;22.688;2022-12-18T06:12:28;7.03;;;5.93;;
32038;SDS011;18549;42.286;22.688;2022-12-18T06:14:55;10.70;;;5.60;;
32038;SDS011;18549;42.286;22.688;2022-12-18T06:17:24;5.87;;;5.13;;
32038;SDS011;18549;42.286;22.688;2022-12-18T06:19:54;5.80;;;4.70;;
32038;SDS011;18549;42.286;22.688;2022-12-18T06:22:22;6.60;;;4.87;;
32038;SDS011;18549;42.286;22.688;2022-12-18T06:24:49;8.83;;;5.83;;
32038;SDS011;18549;42.286;22.688;2022-12-18T06:27:17;10.70;;;6.47;;
32038;SDS011;18549;42.286;22.688;2022-12-18T06:29:44;14.83;;;9.03;;
32038;SDS011;18549;42.286;22.688;2022-12-18T06:32:11;15.80;;;8.90;;
32038;SDS011;18549;42.286;22.688;2022-12-18T06:34:40;14.87;;;10.77;;
32038;SDS011;18549;42.286;22.688;2022-12-18T06:37:08;11.93;;;7.43;;
32038;SDS011;18549;42.286;22.688;2022-12-18T06:39:35;11.47;;;7.50;;
32038;SDS011;18549;42.286;22.688;2022-12-18T06:42:02;9.83;;;7.57;;
32038;SDS011;18549;42.286;22.688;2022-12-18T06:44:30;11.90;;;7.67;;
32038;SDS011;18549;42.286;22.688;2022-12-18T06:46:57;14.47;;;8.57;;
32038;SDS011;18549;42.286;22.688;2022-12-18T06:49:25;15.70;;;9.80;;
32038;SDS011;18549;42.286;22.688;2022-12-18T06:51:54;19.30;;;10.83;;
32038;SDS011;18549;42.286;22.688;2022-12-18T06:54:21;16.17;;;10.43;;
32038;SDS011;18549;42.286;22.688;2022-12-18T06:56:48;14.47;;;10.37;;
32038;SDS011;18549;42.286;22.688;2022-12-18T06:59:16;17.67;;;9.67;;
32038;SDS011;18549;42.286;22.688;2022-12-18T07:01:43;15.80;;;12.17;;
32038;SDS011;18549;42.286;22.688;2022-12-18T07:04:10;22.47;;;15.40;;
32038;SDS011;18549;42.286;22.688;2022-12-18T07:06:38;23.63;;;14.27;;
32038;SDS011;18549;42.286;22.688;2022-12-18T07:09:07;35.07;;;17.07;;
32038;SDS011;18549;42.286;22.688;2022-12-18T07:11:34;22.63;;;13.30;;
32038;SDS011;18549;42.286;22.688;2022-12-18T07:14:02;26.23;;;12.70;;
32038;SDS011;18549;42.286;22.688;2022-12-18T07:16:29;28.27;;;16.60;;
32038;SDS011;18549;42.286;22.688;2022-12-18T07:18:56;22.50;;;15.13;;
32038;SDS011;18549;42.286;22.688;2022-12-18T07:21:24;21.63;;;15.30;;
32038;SDS011;18549;42.286;22.688;2022-12-18T07:23:52;16.80;;;11.47;;
32038;SDS011;18549;42.286;22.688;2022-12-18T07:26:21;14.87;;;9.13;;
32038;SDS011;18549;42.286;22.688;2022-12-18T07:28:49;16.48;;;9.90;;
32038;SDS011;18549;42.286;22.688;2022-12-18T07:31:18;9.23;;;6.37;;
32038;SDS011;18549;42.286;22.688;2022-12-18T07:33:46;10.07;;;8.67;;
32038;SDS011;18549;42.286;22.688;2022-12-18T07:36:14;11.10;;;8.87;;
32038;SDS011;18549;42.286;22.688;2022-12-18T07:38:43;10.17;;;8.33;;
32038;SDS011;18549;42.286;22.688;2022-12-18T07:41:13;11.23;;;9.47;;
32038;SDS011;18549;42.286;22.688;2022-12-18T07:43:42;11.37;;;8.83;;
32038;SDS011;18549;42.286;22.688;2022-12-18T07:46:09;13.43;;;10.23;;
32038;SDS011;18549;42.286;22.688;2022-12-18T07:48:38;20.63;;;12.87;;
32038;SDS011;18549;42.286;22.688;2022-12-18T07:51:06;15.67;;;9.70;;
32038;SDS011;18549;42.286;22.688;2022-12-18T07:53:34;15.93;;;12.17;;
32038;SDS011;18549;42.286;22.688;2022-12-18T07:56:04;15.97;;;12.20;;
32038;SDS011;18549;42.286;22.688;2022-12-18T07:58:32;13.37;;;11.17;;
32038;SDS011;18549;42.286;22.688;2022-12-18T08:01:05;9.23;;;7.53;;
32038;SDS011;18549;42.286;22.688;2022-12-18T08:03:34;9.10;;;7.33;;
32038;SDS011;18549;42.286;22.688;2022-12-18T08:06:02;13.83;;;9.40;;
32038;SDS011;18549;42.286;22.688;2022-12-18T08:08:32;12.60;;;6.63;;
32038;SDS011;18549;42.286;22.688;2022-12-18T08:11:00;7.67;;;6.23;;
32038;SDS011;18549;42.286;22.688;2022-12-18T08:13:27;10.10;;;8.73;;
32038;SDS011;18549;42.286;22.688;2022-12-18T08:15:56;9.97;;;7.83;;
32038;SDS011;18549;42.286;22.688;2022-12-18T08:18:25;11.00;;;9.87;;
32038;SDS011;18549;42.286;22.688;2022-12-18T08:20:53;12.10;;;8.53;;
32038;SDS011;18549;42.286;22.688;2022-12-18T08:23:20;16.07;;;7.67;;
32038;SDS011;18549;42.286;22.688;2022-12-18T08:25:48;11.50;;;7.73;;
32038;SDS011;18549;42.286;22.688;2022-12-18T08:28:16;8.60;;;7.33;;
32038;SDS011;18549;42.286;22.688;2022-12-18T08:30:44;8.37;;;6.13;;
32038;SDS011;18549;42.286;22.688;2022-12-18T08:33:11;9.10;;;6.67;;
32038;SDS011;18549;42.286;22.688;2022-12-18T08:35:40;17.90;;;11.40;;
32038;SDS011;18549;42.286;22.688;2022-12-18T08:38:08;10.70;;;8.40;;
32038;SDS011;18549;42.286;22.688;2022-12-18T08:40:35;11.67;;;9.53;;
32038;SDS011;18549;42.286;22.688;2022-12-18T08:43:02;12.00;;;8.37;;
32038;SDS011;18549;42.286;22.688;2022-12-18T08:45:47;8.33;;;6.67;;
32038;SDS011;18549;42.286;22.688;2022-12-18T08:48:15;7.87;;;5.97;;
32038;SDS011;18549;42.286;22.688;2022-12-18T08:50:43;9.50;;;7.70;;
32038;SDS011;18549;42.286;22.688;2022-12-18T08:53:19;7.20;;;5.80;;
32038;SDS011;18549;42.286;22.688;2022-12-18T08:55:47;8.87;;;5.97;;
32038;SDS011;18549;42.286;22.688;2022-12-18T08:58:14;9.53;;;6.40;;
32038;SDS011;18549;42.286;22.688;2022-12-18T09:00:42;7.60;;;6.07;;
32038;SDS011;18549;42.286;22.688;2022-12-18T09:03:10;7.13;;;5.67;;
32038;SDS011;18549;42.286;22.688;2022-12-18T09:05:39;10.43;;;9.23;;
32038;SDS011;18549;42.286;22.688;2022-12-18T09:08:08;17.43;;;14.63;;
32038;SDS011;18549;42.286;22.688;2022-12-18T09:10:41;13.70;;;9.57;;
32038;SDS011;18549;42.286;22.688;2022-12-18T09:13:09;14.60;;;8.98;;
32038;SDS011;18549;42.286;22.688;2022-12-18T09:15:40;19.90;;;12.60;;
32038;SDS011;18549;42.286;22.688;2022-12-18T09:18:08;32.13;;;20.57;;
32038;SDS011;18549;42.286;22.688;2022-12-18T09:20:35;24.03;;;12.63;;
32038;SDS011;18549;42.286;22.688;2022-12-18T09:23:03;11.70;;;8.40;;
32038;SDS011;18549;42.286;22.688;2022-12-18T09:25:32;14.97;;;8.97;;
32038;SDS011;18549;42.286;22.688;2022-12-18T09:28:01;17.43;;;10.33;;
32038;SDS011;18549;42.286;22.688;2022-12-18T09:30:29;22.53;;;14.13;;
32038;SDS011;18549;42.286;22.688;2022-12-18T09:32:58;18.50;;;12.03;;
32038;SDS011;18549;42.286;22.688;2022-12-18T09:35:25;16.30;;;11.53;;
32038;SDS011;18549;42.286;22.688;2022-12-18T09:37:53;16.37;;;11.50;;
32038;SDS011;18549;42.286;22.688;2022-12-18T09:40:21;20.10;;;9.50;;
32038;SDS011;18549;42.286;22.688;2022-12-18T09:42:53;12.07;;;8.60;;
32038;SDS011;18549;42.286;22.688;2022-12-18T09:45:24;15.27;;;10.43;;
32038;SDS011;18549;42.286;22.688;2022-12-18T09:47:52;15.57;;;11.50;;
32038;SDS011;18549;42.286;22.688;2022-12-18T09:50:23;18.20;;;9.07;;
32038;SDS011;18549;42.286;22.688;2022-12-18T09:52:55;15.03;;;11.13;;
32038;SDS011;18549;42.286;22.688;2022-12-18T09:55:25;11.93;;;7.90;;
32038;SDS011;18549;42.286;22.688;2022-12-18T09:57:59;8.90;;;6.37;;
32038;SDS011;18549;42.286;22.688;2022-12-18T10:00:31;7.37;;;5.07;;
32038;SDS011;18549;42.286;22.688;2022-12-18T10:02:59;6.13;;;5.13;;
32038;SDS011;18549;42.286;22.688;2022-12-18T10:05:33;11.73;;;8.60;;
32038;SDS011;18549;42.286;22.688;2022-12-18T10:08:05;17.07;;;10.60;;
32038;SDS011;18549;42.286;22.688;2022-12-18T10:10:38;20.60;;;11.03;;
32038;SDS011;18549;42.286;22.688;2022-12-18T10:13:18;30.50;;;16.00;;
32038;SDS011;18549;42.286;22.688;2022-12-18T10:16:00;53.83;;;24.23;;
32038;SDS011;18549;42.286;22.688;2022-12-18T10:18:50;23.17;;;12.73;;
32038;SDS011;18549;42.286;22.688;2022-12-18T10:21:39;32.23;;;15.60;;
32038;SDS011;18549;42.286;22.688;2022-12-18T10:24:15;17.07;;;12.10;;
32038;SDS011;18549;42.286;22.688;2022-12-18T10:26:49;16.67;;;11.93;;
32038;SDS011;18549;42.286;22.688;2022-12-18T10:29:20;17.63;;;12.80;;
32038;SDS011;18549;42.286;22.688;2022-12-18T10:31:47;27.03;;;18.80;;
32038;SDS011;18549;42.286;22.688;2022-12-18T10:34:15;27.73;;;17.33;;
32038;SDS011;18549;42.286;22.688;2022-12-18T10:36:42;31.63;;;17.93;;
32038;SDS011;18549;42.286;22.688;2022-12-18T10:39:17;42.17;;;25.10;;
32038;SDS011;18549;42.286;22.688;2022-12-18T10:41:45;22.03;;;13.87;;
32038;SDS011;18549;42.286;22.688;2022-12-18T10:44:16;22.77;;;15.93;;
32038;SDS011;18549;42.286;22.688;2022-12-18T10:46:46;25.53;;;13.77;;
32038;SDS011;18549;42.286;22.688;2022-12-18T10:49:21;188.53;;;75.20;;
32038;SDS011;18549;42.286;22.688;2022-12-18T10:51:50;61.07;;;28.20;;
32038;SDS011;18549;42.286;22.688;2022-12-18T10:54:30;18.50;;;11.60;;
32038;SDS011;18549;42.286;22.688;2022-12-18T10:57:13;25.57;;;14.70;;
32038;SDS011;18549;42.286;22.688;2022-12-18T10:59:49;44.93;;;20.63;;
32038;SDS011;18549;42.286;22.688;2022-12-18T11:02:26;36.80;;;23.27;;
32038;SDS011;18549;42.286;22.688;2022-12-18T11:04:59;20.50;;;14.50;;
32038;SDS011;18549;42.286;22.688;2022-12-18T11:07:29;23.57;;;14.47;;
32038;SDS011;18549;42.286;22.688;2022-12-18T11:10:16;28.93;;;15.70;;
32038;SDS011;18549;42.286;22.688;2022-12-18T11:12:44;16.83;;;11.03;;
32038;SDS011;18549;42.286;22.688;2022-12-18T11:15:16;31.57;;;22.13;;
32038;SDS011;18549;42.286;22.688;2022-12-18T11:17:49;13.03;;;10.07;;
32038;SDS011;18549;42.286;22.688;2022-12-18T11:20:23;17.50;;;11.50;;
32038;SDS011;18549;42.286;22.688;2022-12-18T11:22:57;16.10;;;9.63;;
32038;SDS011;18549;42.286;22.688;2022-12-18T11:25:26;32.63;;;18.40;;
32038;SDS011;18549;42.286;22.688;2022-12-18T11:27:55;15.20;;;11.10;;
32038;SDS011;18549;42.286;22.688;2022-12-18T11:30:24;16.27;;;11.07;;
32038;SDS011;18549;42.286;22.688;2022-12-18T11:32:55;18.40;;;10.70;;
32038;SDS011;18549;42.286;22.688;2022-12-18T11:38:18;16.37;;;10.63;;
32038;SDS011;18549;42.286;22.688;2022-12-18T11:40:51;16.57;;;11.27;;
32038;SDS011;18549;42.286;22.688;2022-12-18T11:43:26;16.10;;;11.23;;
32038;SDS011;18549;42.286;22.688;2022-12-18T11:45:56;17.03;;;11.53;;
32038;SDS011;18549;42.286;22.688;2022-12-18T11:48:30;17.93;;;13.13;;
32038;SDS011;18549;42.286;22.688;2022-12-18T11:51:04;18.90;;;13.53;;
32038;SDS011;18549;42.286;22.688;2022-12-18T11:53:36;16.23;;;10.80;;
32038;SDS011;18549;42.286;22.688;2022-12-18T11:56:08;19.47;;;13.23;;
32038;SDS011;18549;42.286;22.688;2022-12-18T11:58:57;36.80;;;24.13;;
32038;SDS011;18549;42.286;22.688;2022-12-18T12:01:34;26.47;;;16.00;;
32038;SDS011;18549;42.286;22.688;2022-12-18T12:04:27;30.80;;;17.23;;
32038;SDS011;18549;42.286;22.688;2022-12-18T12:07:09;26.97;;;17.80;;
32038;SDS011;18549;42.286;22.688;2022-12-18T12:09:49;27.60;;;17.83;;
32038;SDS011;18549;42.286;22.688;2022-12-18T12:12:30;23.93;;;16.00;;
32038;SDS011;18549;42.286;22.688;2022-12-18T12:15:21;17.87;;;11.57;;
32038;SDS011;18549;42.286;22.688;2022-12-18T12:17:55;24.43;;;13.57;;
32038;SDS011;18549;42.286;22.688;2022-12-18T12:20:33;30.73;;;20.27;;
32038;SDS011;18549;42.286;22.688;2022-12-18T12:23:13;19.93;;;13.17;;
32038;SDS011;18549;42.286;22.688;2022-12-18T12:25:46;19.83;;;14.77;;
32038;SDS011;18549;42.286;22.688;2022-12-18T12:28:21;20.40;;;14.20;;
32038;SDS011;18549;42.286;22.688;2022-12-18T12:31:01;36.73;;;23.27;;
32038;SDS011;18549;42.286;22.688;2022-12-18T12:33:40;40.90;;;22.60;;
32038;SDS011;18549;42.286;22.688;2022-12-18T12:36:16;44.13;;;25.07;;
32038;SDS011;18549;42.286;22.688;2022-12-18T12:38:50;17.83;;;13.50;;
32038;SDS011;18549;42.286;22.688;2022-12-18T12:41:22;41.27;;;27.00;;
32038;SDS011;18549;42.286;22.688;2022-12-18T12:44:13;25.57;;;16.17;;
32038;SDS011;18549;42.286;22.688;2022-12-18T12:46:43;17.03;;;11.97;;
32038;SDS011;18549;42.286;22.688;2022-12-18T12:49:12;12.20;;;9.93;;
32038;SDS011;18549;42.286;22.688;2022-12-18T12:51:43;13.87;;;10.73;;
32038;SDS011;18549;42.286;22.688;2022-12-18T12:54:17;12.50;;;9.27;;
32038;SDS011;18549;42.286;22.688;2022-12-18T12:56:48;16.37;;;11.37;;
32038;SDS011;18549;42.286;22.688;2022-12-18T12:59:24;15.73;;;12.53;;
32038;SDS011;18549;42.286;22.688;2022-12-18T13:01:58;13.63;;;9.57;;
32038;SDS011;18549;42.286;22.688;2022-12-18T13:04:32;23.67;;;15.20;;
32038;SDS011;18549;42.286;22.688;2022-12-18T13:07:06;19.97;;;13.27;;
32038;SDS011;18549;42.286;22.688;2022-12-18T13:12:51;24.20;;;18.13;;
32038;SDS011;18549;42.286;22.688;2022-12-18T13:15:23;22.60;;;16.40;;
32038;SDS011;18549;42.286;22.688;2022-12-18T13:18:03;25.83;;;18.80;;
32038;SDS011;18549;42.286;22.688;2022-12-18T13:20:38;29.03;;;19.63;;
32038;SDS011;18549;42.286;22.688;2022-12-18T13:23:25;36.47;;;26.57;;
32038;SDS011;18549;42.286;22.688;2022-12-18T13:25:58;25.90;;;17.77;;
32038;SDS011;18549;42.286;22.688;2022-12-18T13:34:35;26.30;;;17.20;;
32038;SDS011;18549;42.286;22.688;2022-12-18T13:43:35;21.57;;;16.53;;
32038;SDS011;18549;42.286;22.688;2022-12-18T13:46:18;28.83;;;19.57;;
32038;SDS011;18549;42.286;22.688;2022-12-18T13:48:52;37.83;;;24.10;;
32038;SDS011;18549;42.286;22.688;2022-12-18T13:51:24;29.77;;;18.90;;
32038;SDS011;18549;42.286;22.688;2022-12-18T13:53:53;22.47;;;18.17;;
32038;SDS011;18549;42.286;22.688;2022-12-18T13:56:24;30.47;;;18.63;;
32038;SDS011;18549;42.286;22.688;2022-12-18T14:01:51;26.90;;;19.70;;
32038;SDS011;18549;42.286;22.688;2022-12-18T14:04:21;37.20;;;24.53;;
32038;SDS011;18549;42.286;22.688;2022-12-18T14:06:51;37.57;;;22.93;;
32038;SDS011;18549;42.286;22.688;2022-12-18T14:09:23;32.13;;;24.33;;
32038;SDS011;18549;42.286;22.688;2022-12-18T14:11:52;37.53;;;25.13;;
32038;SDS011;18549;42.286;22.688;2022-12-18T14:14:45;49.83;;;30.63;;
32038;SDS011;18549;42.286;22.688;2022-12-18T14:17:14;110.53;;;60.60;;
32038;SDS011;18549;42.286;22.688;2022-12-18T14:19:43;118.57;;;68.60;;
32038;SDS011;18549;42.286;22.688;2022-12-18T14:22:14;68.40;;;40.50;;
32038;SDS011;18549;42.286;22.688;2022-12-18T14:24:43;57.30;;;34.50;;
32038;SDS011;18549;42.286;22.688;2022-12-18T14:27:21;42.77;;;26.73;;
32038;SDS011;18549;42.286;22.688;2022-12-18T14:29:52;62.77;;;39.77;;
32038;SDS011;18549;42.286;22.688;2022-12-18T14:32:20;48.97;;;30.67;;
32038;SDS011;18549;42.286;22.688;2022-12-18T14:34:48;67.70;;;40.13;;
32038;SDS011;18549;42.286;22.688;2022-12-18T14:37:18;63.10;;;38.73;;
32038;SDS011;18549;42.286;22.688;2022-12-18T14:39:54;49.77;;;32.23;;
32038;SDS011;18549;42.286;22.688;2022-12-18T14:42:23;50.03;;;33.13;;
32038;SDS011;18549;42.286;22.688;2022-12-18T14:48:05;52.97;;;34.07;;
32038;SDS011;18549;42.286;22.688;2022-12-18T14:50:33;64.27;;;38.60;;
32038;SDS011;18549;42.286;22.688;2022-12-18T14:53:01;56.33;;;36.17;;
32038;SDS011;18549;42.286;22.688;2022-12-18T14:55:29;60.97;;;39.57;;
32038;SDS011;18549;42.286;22.688;2022-12-18T14:57:56;67.07;;;39.43;;